createdAt,value
2022-08-26T00:01:03.086Z,101512.47
2022-08-26T00:03:30.050Z,101510.22
2022-08-26T00:05:57.045Z,101515.16
2022-08-26T00:08:25.581Z,101512.63
2022-08-26T00:10:52.578Z,101502.78
2022-08-26T00:13:19.488Z,101498.19
2022-08-26T00:15:47.144Z,101492.41
2022-08-26T00:18:16.756Z,101505.31
2022-08-26T00:20:49.816Z,101498.63
2022-08-26T00:23:17.963Z,101491.88
2022-08-26T00:25:44.977Z,101501.56
2022-08-26T00:28:12.372Z,101497.47
2022-08-26T00:30:40.739Z,101497.94
2022-08-26T00:33:08.163Z,101496.03
2022-08-26T00:35:36.187Z,101494.25
2022-08-26T00:38:03.136Z,101498.41
2022-08-26T00:40:32.408Z,101503.88
2022-08-26T00:42:59.923Z,101497.38
2022-08-26T00:45:27.508Z,101488.06
2022-08-26T00:47:56.290Z,101492.72
2022-08-26T00:50:26.400Z,101492.72
2022-08-26T00:52:55.608Z,101490.16
2022-08-26T00:55:51.986Z,101487.78
2022-08-26T00:58:20.224Z,101482.72
2022-08-26T01:00:48.051Z,101483.94
2022-08-26T01:03:17.169Z,101483.09
2022-08-26T01:05:44.361Z,101478.75
2022-08-26T01:08:11.349Z,101479.31
2022-08-26T01:10:38.882Z,101484.31
2022-08-26T01:13:10.358Z,101481.50
2022-08-26T01:15:42.815Z,101481.91
2022-08-26T01:18:10.478Z,101485.13
2022-08-26T01:21:09.588Z,101479.81
2022-08-26T01:23:39.317Z,101483.94
2022-08-26T01:26:19.827Z,101488.44
2022-08-26T01:28:50.702Z,101483.25
2022-08-26T01:31:20.888Z,101490.22
2022-08-26T01:33:48.034Z,101479.19
2022-08-26T01:36:17.119Z,101483.94
2022-08-26T01:38:44.800Z,101477.06
2022-08-26T01:41:16.270Z,101482.97
2022-08-26T01:43:48.458Z,101478.84
2022-08-26T01:46:16.223Z,101477.91
2022-08-26T01:48:44.393Z,101483.69
2022-08-26T01:51:12.423Z,101487.22
2022-08-26T01:53:41.778Z,101476.56
2022-08-26T01:56:13.000Z,101472.34
2022-08-26T01:58:43.470Z,101479.63
2022-08-26T02:01:11.247Z,101475.94
2022-08-26T02:03:45.378Z,101473.53
2022-08-26T02:06:14.481Z,101469.03
2022-08-26T02:08:49.900Z,101467.34
2022-08-26T02:11:18.405Z,101471.69
2022-08-26T02:13:46.889Z,101472.91
2022-08-26T02:16:16.359Z,101466.50
2022-08-26T02:18:43.955Z,101463.00
2022-08-26T02:21:13.991Z,101461.75
2022-08-26T02:23:41.644Z,101458.13
2022-08-26T02:26:11.426Z,101473.84
2022-08-26T02:28:46.766Z,101462.75
2022-08-26T02:31:13.889Z,101463.84
2022-08-26T02:33:43.099Z,101472.09
2022-08-26T02:36:10.258Z,101467.47
2022-08-26T02:38:39.275Z,101469.28
2022-08-26T02:41:06.728Z,101466.63
2022-08-26T02:43:35.049Z,101472.91
2022-08-26T02:46:02.618Z,101460.75
2022-08-26T02:48:29.932Z,101464.63
2022-08-26T02:50:58.446Z,101468.72
2022-08-26T02:53:25.774Z,101470.09
2022-08-26T02:55:52.819Z,101467.72
2022-08-26T02:58:21.177Z,101462.66
2022-08-26T03:00:52.546Z,101458.13
2022-08-26T03:03:22.473Z,101463.44
2022-08-26T03:05:51.248Z,101457.06
2022-08-26T03:08:18.549Z,101462.19
2022-08-26T03:10:47.619Z,101459.81
2022-08-26T03:13:16.713Z,101450.81
2022-08-26T03:15:44.276Z,101455.56
2022-08-26T03:18:13.476Z,101451.84
2022-08-26T03:20:40.702Z,101454.97
2022-08-26T03:23:08.269Z,101449.41
2022-08-26T03:25:36.153Z,101451.81
2022-08-26T03:28:04.130Z,101444.09
2022-08-26T03:30:44.209Z,101445.50
2022-08-26T03:33:12.969Z,101438.53
2022-08-26T03:35:41.166Z,101440.19
2022-08-26T03:38:08.708Z,101436.44
2022-08-26T03:40:36.863Z,101438.00
2022-08-26T03:43:06.013Z,101439.94
2022-08-26T03:45:37.311Z,101433.31
2022-08-26T03:48:05.089Z,101439.75
2022-08-26T03:50:34.304Z,101437.22
2022-08-26T03:53:03.249Z,101443.09
2022-08-26T03:55:32.161Z,101442.84
2022-08-26T03:58:00.099Z,101441.22
2022-08-26T04:00:27.258Z,101445.44
2022-08-26T04:02:54.683Z,101445.06
2022-08-26T04:05:23.142Z,101443.84
2022-08-26T04:07:50.726Z,101440.81
2022-08-26T04:10:20.405Z,101442.28
2022-08-26T04:12:47.459Z,101443.75
2022-08-26T04:15:15.807Z,101435.91
2022-08-26T04:17:43.444Z,101431.16
2022-08-26T04:20:14.032Z,101434.19
2022-08-26T04:22:43.645Z,101436.59
2022-08-26T04:25:11.343Z,101437.06
2022-08-26T04:27:38.849Z,101427.28
2022-08-26T04:30:08.894Z,101428.13
2022-08-26T04:32:36.669Z,101433.81
2022-08-26T04:35:04.648Z,101430.06
2022-08-26T04:37:32.564Z,101442.13
2022-08-26T04:39:59.786Z,101447.47
2022-08-26T04:42:27.401Z,101439.22
2022-08-26T04:44:55.486Z,101439.06
2022-08-26T04:47:22.381Z,101442.28
2022-08-26T04:49:49.291Z,101443.00
2022-08-26T04:52:17.682Z,101445.47
2022-08-26T04:54:44.923Z,101440.09
2022-08-26T04:57:12.513Z,101440.78
2022-08-26T04:59:40.652Z,101445.31
2022-08-26T05:02:07.490Z,101448.72
2022-08-26T05:04:36.275Z,101439.97
2022-08-26T05:07:03.916Z,101438.72
2022-08-26T05:09:30.723Z,101430.78
2022-08-26T05:11:57.849Z,101430.97
2022-08-26T05:14:24.984Z,101424.56
2022-08-26T05:16:51.914Z,101432.84
2022-08-26T05:19:19.479Z,101427.13
2022-08-26T05:21:48.621Z,101428.28
2022-08-26T05:24:15.861Z,101433.28
2022-08-26T05:26:44.591Z,101431.19
2022-08-26T05:29:12.246Z,101434.28
2022-08-26T05:31:39.238Z,101428.78
2022-08-26T05:34:06.981Z,101437.78
2022-08-26T05:36:36.367Z,101431.44
2022-08-26T05:39:07.990Z,101428.56
2022-08-26T05:41:39.098Z,101430.75
2022-08-26T05:44:07.465Z,101435.00
2022-08-26T05:46:36.761Z,101433.53
2022-08-26T05:49:05.756Z,101422.78
2022-08-26T05:51:32.997Z,101427.78
2022-08-26T05:54:01.906Z,101432.81
2022-08-26T05:56:31.107Z,101436.59
2022-08-26T05:58:59.736Z,101426.53
2022-08-26T06:01:27.609Z,101425.09
2022-08-26T06:03:57.341Z,101429.50
2022-08-26T06:06:29.963Z,101427.41
2022-08-26T06:08:59.524Z,101426.19
2022-08-26T06:11:27.399Z,101427.31
2022-08-26T06:13:57.979Z,101424.63
2022-08-26T06:16:29.505Z,101415.50
2022-08-26T06:18:56.323Z,101414.06
2022-08-26T06:21:31.293Z,101417.09
2022-08-26T06:24:22.058Z,101421.91
2022-08-26T06:26:55.831Z,101416.50
2022-08-26T06:29:24.904Z,101419.63
2022-08-26T06:31:52.769Z,101418.19
2022-08-26T06:34:19.743Z,101416.06
2022-08-26T06:36:48.119Z,101420.00
2022-08-26T06:39:16.098Z,101409.72
2022-08-26T06:41:45.104Z,101409.38
2022-08-26T06:44:17.394Z,101417.91
2022-08-26T06:46:46.157Z,101412.28
2022-08-26T06:49:17.928Z,101413.81
2022-08-26T06:51:45.081Z,101405.56
2022-08-26T06:54:12.064Z,101403.22
2022-08-26T06:56:40.381Z,101405.28
2022-08-26T06:59:08.699Z,101408.09
2022-08-26T07:01:38.539Z,101398.00
2022-08-26T07:04:10.803Z,101400.03
2022-08-26T07:06:40.152Z,101397.38
2022-08-26T07:09:09.910Z,101389.88
2022-08-26T07:11:38.392Z,101387.41
2022-08-26T07:14:06.269Z,101397.41
2022-08-26T07:16:33.667Z,101387.53
2022-08-26T07:19:11.113Z,101387.84
2022-08-26T07:21:40.516Z,101381.34
2022-08-26T07:24:08.681Z,101372.50
2022-08-26T07:26:38.522Z,101381.09
2022-08-26T07:29:06.945Z,101377.88
2022-08-26T07:31:42.180Z,101381.19
2022-08-26T07:34:11.036Z,101378.03
2022-08-26T07:36:38.300Z,101374.09
2022-08-26T07:39:05.978Z,101365.25
2022-08-26T07:41:33.734Z,101369.88
2022-08-26T07:44:01.602Z,101371.13
2022-08-26T07:46:30.258Z,101360.56
2022-08-26T07:48:58.116Z,101367.88
2022-08-26T07:51:25.780Z,101366.00
2022-08-26T07:53:53.201Z,101363.84
2022-08-26T07:56:21.186Z,101365.00
2022-08-26T07:58:51.787Z,101349.25
2022-08-26T08:01:20.446Z,101354.78
2022-08-26T08:03:50.557Z,101349.19
2022-08-26T08:06:19.118Z,101350.63
2022-08-26T08:08:46.490Z,101355.28
2022-08-26T08:11:14.552Z,101348.78
2022-08-26T08:13:41.631Z,101350.06
2022-08-26T08:16:12.739Z,101351.34
2022-08-26T08:18:40.747Z,101351.72
2022-08-26T08:21:21.152Z,101346.13
2022-08-26T08:23:49.043Z,101352.06
2022-08-26T08:26:16.806Z,101339.88
2022-08-26T08:28:43.954Z,101338.41
2022-08-26T08:31:21.632Z,101339.22
2022-08-26T08:34:00.417Z,101335.81
2022-08-26T08:36:27.391Z,101338.06
2022-08-26T08:39:03.542Z,101336.34
2022-08-26T08:41:41.776Z,101338.38
2022-08-26T08:44:11.017Z,101330.53
2022-08-26T08:46:38.387Z,101326.38
2022-08-26T08:49:06.144Z,101318.72
2022-08-26T08:51:39.575Z,101316.31
2022-08-26T08:54:07.605Z,101316.88
2022-08-26T08:56:37.796Z,101314.09
2022-08-26T08:59:22.527Z,101319.06
2022-08-26T09:02:06.490Z,101310.00
2022-08-26T09:04:48.833Z,101312.41
2022-08-26T09:07:24.602Z,101305.44
2022-08-26T09:09:57.338Z,101309.25
2022-08-26T09:12:29.459Z,101299.78
2022-08-26T09:15:17.577Z,101307.16
2022-08-26T09:17:51.062Z,101297.22
2022-08-26T09:20:24.633Z,101294.50
2022-08-26T09:22:51.766Z,101298.19
2022-08-26T09:25:18.764Z,101303.97
2022-08-26T09:27:50.515Z,101295.31
2022-08-26T09:30:26.551Z,101286.53
2022-08-26T09:33:14.341Z,101290.06
2022-08-26T09:35:47.109Z,101290.06
2022-08-26T09:38:21.872Z,101291.69
2022-08-26T09:40:59.660Z,101285.44
2022-08-26T09:43:28.604Z,101277.34
2022-08-26T09:46:12.590Z,101280.13
2022-08-26T09:48:41.013Z,101276.00
2022-08-26T09:51:28.482Z,101274.66
2022-08-26T09:53:59.538Z,101275.31
2022-08-26T09:56:28.746Z,101271.28
2022-08-26T09:58:56.923Z,101274.63
2022-08-26T10:01:23.879Z,101263.31
2022-08-26T10:03:51.558Z,101261.16
2022-08-26T10:06:21.081Z,101269.38
2022-08-26T10:08:49.777Z,101255.94
2022-08-26T10:11:19.703Z,101242.78
2022-08-26T10:13:49.477Z,101247.03
2022-08-26T10:16:21.984Z,101239.22
2022-08-26T10:18:59.931Z,101235.22
2022-08-26T10:21:39.096Z,101238.41
2022-08-26T10:24:07.804Z,101226.13
2022-08-26T10:26:50.743Z,101234.59
2022-08-26T10:29:23.213Z,101218.41
2022-08-26T10:31:53.079Z,101221.50
2022-08-26T10:34:21.267Z,101213.94
2022-08-26T10:37:16.108Z,101211.25
2022-08-26T10:39:58.504Z,101209.63
2022-08-26T10:42:30.386Z,101205.03
2022-08-26T10:45:02.616Z,101193.97
2022-08-26T10:47:44.721Z,101198.06
2022-08-26T10:50:12.814Z,101184.13
2022-08-26T10:52:46.630Z,101171.88
2022-08-26T10:55:23.042Z,101174.97
2022-08-26T10:58:00.171Z,101167.34
2022-08-26T11:00:53.135Z,101174.69
2022-08-26T11:03:32.577Z,101161.34
2022-08-26T11:06:18.018Z,101171.41
2022-08-26T11:08:53.217Z,101161.44
2022-08-26T11:11:38.785Z,101148.81
2022-08-26T11:14:07.045Z,101151.44
2022-08-26T11:16:42.789Z,101140.63
2022-08-26T11:19:12.160Z,101139.94
2022-08-26T11:21:50.824Z,101129.47
2022-08-26T11:24:37.084Z,101128.06
2022-08-26T11:27:04.510Z,101118.41
2022-08-26T11:29:56.414Z,101116.16
2022-08-26T11:32:25.242Z,101103.31
2022-08-26T11:34:56.309Z,101099.16
2022-08-26T11:37:25.647Z,101104.66
2022-08-26T11:39:55.569Z,101093.25
2022-08-26T11:42:41.686Z,101084.31
2022-08-26T11:45:25.343Z,101082.22
2022-08-26T11:47:53.370Z,101081.19
2022-08-26T11:50:20.646Z,101077.75
2022-08-26T11:52:55.298Z,101080.25
2022-08-26T11:55:24.132Z,101069.13
2022-08-26T11:57:53.338Z,101053.56
2022-08-26T12:00:35.108Z,101065.44
2022-08-26T12:03:05.794Z,101059.09
2022-08-26T12:05:36.260Z,101059.59
2022-08-26T12:08:11.425Z,101053.78
2022-08-26T12:10:38.855Z,101060.28
2022-08-26T12:13:07.809Z,101059.94
2022-08-26T12:15:35.731Z,101043.97
2022-08-26T12:18:30.118Z,101044.28
2022-08-26T12:21:01.894Z,101041.38
2022-08-26T12:23:46.728Z,101033.38
2022-08-26T12:26:14.885Z,101039.03
2022-08-26T12:28:43.542Z,101032.28
2022-08-26T12:31:10.512Z,101039.56
2022-08-26T12:33:37.990Z,101027.84
2022-08-26T12:36:06.169Z,101027.50
2022-08-26T12:38:35.612Z,101029.28
2022-08-26T12:41:02.942Z,101024.94
2022-08-26T12:43:37.892Z,101020.63
2022-08-26T12:46:06.613Z,101011.22
2022-08-26T12:48:38.869Z,101012.28
2022-08-26T12:51:26.300Z,101007.56
2022-08-26T12:53:53.672Z,100998.81
2022-08-26T12:56:27.379Z,101001.94
2022-08-26T12:59:05.833Z,101013.53
2022-08-26T13:01:38.114Z,101004.31
2022-08-26T13:04:06.674Z,101019.00
2022-08-26T13:06:35.117Z,101016.63
2022-08-26T13:09:06.645Z,101022.19
2022-08-26T13:11:33.509Z,101018.97
2022-08-26T13:14:09.092Z,101019.47
2022-08-26T13:16:37.576Z,101024.31
2022-08-26T13:19:10.347Z,101017.41
2022-08-26T13:21:45.091Z,101010.53
2022-08-26T13:24:14.266Z,101008.81
2022-08-26T13:26:42.898Z,101003.00
2022-08-26T13:29:10.767Z,100994.16
2022-08-26T13:31:39.576Z,100987.28
2022-08-26T13:34:07.994Z,100977.84
2022-08-26T13:36:34.889Z,100969.94
2022-08-26T13:39:02.513Z,100970.41
2022-08-26T13:41:29.826Z,100957.88
2022-08-26T13:43:57.390Z,100965.97
2022-08-26T13:46:26.785Z,100974.09
2022-08-26T13:48:54.692Z,100985.84
2022-08-26T13:51:23.322Z,100976.75
2022-08-26T13:53:50.872Z,100975.25
2022-08-26T13:56:18.943Z,100972.09
2022-08-26T13:58:46.503Z,100973.09
2022-08-26T14:01:15.804Z,100964.47
2022-08-26T14:03:43.065Z,100960.34
2022-08-26T14:06:10.434Z,100961.53
2022-08-26T14:08:38.347Z,100945.59
2022-08-26T14:11:05.744Z,100946.09
2022-08-26T14:13:32.782Z,100949.97
2022-08-26T14:16:01.623Z,100939.69
2022-08-26T14:18:31.152Z,100930.66
2022-08-26T14:20:59.044Z,100936.53
2022-08-26T14:23:26.368Z,100935.16
2022-08-26T14:25:53.911Z,100931.22
2022-08-26T14:28:21.019Z,100925.34
2022-08-26T14:30:51.362Z,100933.41
2022-08-26T14:33:20.504Z,100927.75
2022-08-26T14:35:48.787Z,100919.53
2022-08-26T14:38:16.984Z,100917.56
2022-08-26T14:40:45.125Z,100918.69
2022-08-26T14:43:17.055Z,100913.69
2022-08-26T14:45:45.844Z,100929.59
2022-08-26T14:48:13.374Z,100947.88
2022-08-26T14:50:40.471Z,100951.31
2022-08-26T14:53:26.318Z,100959.84
2022-08-26T14:55:53.220Z,100965.13
2022-08-26T14:58:20.599Z,100960.63
2022-08-26T15:00:47.675Z,100977.50
2022-08-26T15:05:48.406Z,100987.59
2022-08-26T15:08:16.225Z,100993.03
2022-08-26T15:10:43.081Z,100997.00
2022-08-26T15:13:10.334Z,101003.03
2022-08-26T15:15:38.167Z,101004.66
2022-08-26T15:18:05.631Z,101013.78
2022-08-26T15:23:07.160Z,101018.03
2022-08-26T15:25:34.834Z,101027.34
2022-08-26T15:28:02.218Z,101022.28
2022-08-26T15:30:29.584Z,101031.94
2022-08-26T15:32:56.781Z,101044.00
2022-08-26T15:35:24.575Z,101053.22
2022-08-26T15:40:22.034Z,101084.34
2022-08-26T15:42:57.473Z,101092.16
2022-08-26T15:45:28.734Z,101089.94
2022-08-26T15:48:01.561Z,101100.69
2022-08-26T15:50:30.074Z,101088.78
2022-08-26T15:52:57.336Z,101092.06
2022-08-26T15:55:24.787Z,101099.34
2022-08-26T15:57:52.357Z,101097.63
2022-08-26T16:00:20.144Z,101101.47
2022-08-26T16:02:47.286Z,101092.75
2022-08-26T16:05:14.724Z,101096.75
2022-08-26T16:07:41.654Z,101096.13
2022-08-26T16:10:09.084Z,101104.94
2022-08-26T16:12:36.288Z,101116.03
2022-08-26T16:15:03.643Z,101109.69
2022-08-26T16:17:30.732Z,101086.47
2022-08-26T16:19:58.081Z,101089.78
2022-08-26T16:22:25.394Z,101115.50
2022-08-26T16:24:58.659Z,101100.47
2022-08-26T16:27:25.990Z,101095.06
2022-08-26T16:29:52.861Z,101100.16
2022-08-26T16:32:19.931Z,101100.09
2022-08-26T16:34:56.683Z,101093.97
2022-08-26T16:37:24.090Z,101096.84
2022-08-26T16:39:51.291Z,101109.47
2022-08-26T16:42:18.962Z,101110.34
2022-08-26T16:44:46.244Z,101107.63
2022-08-26T16:47:14.537Z,101099.84
2022-08-26T16:49:42.040Z,101102.91
2022-08-26T16:52:09.605Z,101104.72
2022-08-26T16:54:38.489Z,101117.72
2022-08-26T16:57:05.749Z,101113.34
2022-08-26T16:59:33.563Z,101109.44
2022-08-26T17:02:00.854Z,101112.56
2022-08-26T17:04:29.047Z,101119.63
2022-08-26T17:06:56.964Z,101116.19
2022-08-26T17:09:24.270Z,101109.75
2022-08-26T17:11:51.381Z,101114.31
2022-08-26T17:14:18.659Z,101106.25
2022-08-26T17:16:46.258Z,101120.59
2022-08-26T17:19:13.176Z,101118.91
2022-08-26T17:21:41.586Z,101119.28
2022-08-26T17:24:08.667Z,101127.69
2022-08-26T17:26:37.387Z,101130.63
2022-08-26T17:29:06.410Z,101133.00
2022-08-26T17:31:33.734Z,101125.84
2022-08-26T17:34:01.174Z,101130.22
2022-08-26T17:36:28.566Z,101129.75
2022-08-26T17:38:56.302Z,101119.50
2022-08-26T17:41:23.393Z,101113.53
2022-08-26T17:43:50.695Z,101111.53
2022-08-26T17:46:17.651Z,101108.97
2022-08-26T17:48:44.854Z,101099.41
2022-08-26T17:51:13.719Z,101097.41
2022-08-26T17:53:41.623Z,101078.00
2022-08-26T17:56:09.625Z,101062.66
2022-08-26T17:58:37.345Z,101055.81
2022-08-26T18:01:05.932Z,101054.56
2022-08-26T18:03:33.698Z,101057.09
2022-08-26T18:06:01.654Z,101049.53
2022-08-26T18:08:28.659Z,101039.34
2022-08-26T18:10:55.541Z,101047.03
2022-08-26T18:13:22.799Z,101042.19
2022-08-26T18:15:49.870Z,101035.84
2022-08-26T18:18:16.887Z,101031.44
2022-08-26T18:20:45.497Z,101023.41
2022-08-26T18:23:13.117Z,101024.25
2022-08-26T18:25:43.762Z,101015.75
2022-08-26T18:28:11.346Z,101018.78
2022-08-26T18:30:38.754Z,101019.78
2022-08-26T18:33:05.751Z,101011.25
2022-08-26T18:35:34.100Z,101007.22
2022-08-26T18:38:10.753Z,100994.47
2022-08-26T18:40:40.064Z,100983.75
2022-08-26T18:43:07.135Z,100978.41
2022-08-26T18:45:34.755Z,100985.81
2022-08-26T18:48:03.356Z,100996.34
2022-08-26T18:50:30.824Z,100996.50
2022-08-26T18:52:57.749Z,100999.38
2022-08-26T18:55:25.577Z,100999.03
2022-08-26T18:57:52.665Z,101004.38
2022-08-26T19:00:19.794Z,100993.47
2022-08-26T19:02:52.051Z,101003.03
2022-08-26T19:05:23.110Z,101009.56
2022-08-26T19:07:51.694Z,101015.75
2022-08-26T19:10:18.623Z,101026.31
2022-08-26T19:12:45.536Z,101034.81
2022-08-26T19:15:19.171Z,101036.16
2022-08-26T19:17:46.093Z,101036.31
2022-08-26T19:20:12.962Z,101033.66
2022-08-26T19:22:40.293Z,101038.50
2022-08-26T19:25:07.387Z,101041.00
2022-08-26T19:27:34.315Z,101044.53
2022-08-26T19:30:01.643Z,101041.16
2022-08-26T19:32:28.557Z,101047.56
2022-08-26T19:34:55.519Z,101041.19
2022-08-26T19:37:22.847Z,101050.19
2022-08-26T19:39:49.760Z,101055.88
2022-08-26T19:42:16.828Z,101058.06
2022-08-26T19:45:02.752Z,101065.44
2022-08-26T19:47:29.680Z,101060.09
2022-08-26T19:49:57.097Z,101069.31
2022-08-26T19:52:29.961Z,101060.41
2022-08-26T19:54:58.116Z,101060.91
2022-08-26T19:57:25.039Z,101077.50
2022-08-26T19:59:52.013Z,101080.03
2022-08-26T20:02:19.377Z,101084.22
2022-08-26T20:04:46.704Z,101096.19
2022-08-26T20:07:18.093Z,101094.38
2022-08-26T20:09:47.012Z,101091.91
2022-08-26T20:12:15.684Z,101094.31
2022-08-26T20:14:43.349Z,101095.19
2022-08-26T20:17:10.859Z,101103.06
2022-08-26T20:19:56.598Z,101103.13
2022-08-26T20:22:24.133Z,101112.72
2022-08-26T20:24:51.783Z,101114.91
2022-08-26T20:27:18.899Z,101113.38
2022-08-26T20:29:46.341Z,101120.38
2022-08-26T20:32:13.741Z,101118.97
2022-08-26T20:34:40.663Z,101118.47
2022-08-26T20:37:08.670Z,101132.34
2022-08-26T20:39:36.575Z,101129.38
2022-08-26T20:42:04.628Z,101132.47
2022-08-26T20:44:32.763Z,101124.63
2022-08-26T20:47:00.412Z,101123.97
2022-08-26T20:49:28.162Z,101123.34
2022-08-26T20:51:55.740Z,101125.84
2022-08-26T20:54:28.142Z,101129.38
2022-08-26T20:56:56.136Z,101133.69
2022-08-26T20:59:23.296Z,101126.06
2022-08-26T21:01:50.811Z,101129.53
2022-08-26T21:04:19.917Z,101116.97
2022-08-26T21:06:52.199Z,101121.53
2022-08-26T21:09:20.875Z,101135.69
2022-08-26T21:11:49.089Z,101133.53
2022-08-26T21:14:17.018Z,101132.34
2022-08-26T21:16:44.823Z,101147.03
2022-08-26T21:19:13.233Z,101148.00
2022-08-26T21:21:40.983Z,101134.94
2022-08-26T21:24:08.649Z,101136.53
2022-08-26T21:26:35.881Z,101126.53
2022-08-26T21:29:02.958Z,101119.66
2022-08-26T21:31:32.140Z,101112.16
2022-08-26T21:33:59.993Z,101115.22
2022-08-26T21:36:27.313Z,101115.25
2022-08-26T21:38:58.683Z,101110.38
2022-08-26T21:41:27.168Z,101120.25
2022-08-26T21:43:56.083Z,101119.03
2022-08-26T21:46:23.914Z,101122.34
2022-08-26T21:48:54.095Z,101122.69
2022-08-26T21:51:22.946Z,101126.00
2022-08-26T21:53:50.821Z,101128.00
2022-08-26T21:56:21.026Z,101125.84
2022-08-26T21:58:48.280Z,101120.13
2022-08-26T22:01:17.474Z,101100.13
2022-08-26T22:03:46.632Z,101091.72
2022-08-26T22:06:19.067Z,101091.78
2022-08-26T22:08:46.097Z,101083.22
2022-08-26T22:11:14.349Z,101076.50
2022-08-26T22:13:42.678Z,101073.78
2022-08-26T22:16:10.705Z,101066.13
2022-08-26T22:18:38.121Z,101056.91
2022-08-26T22:21:07.928Z,101050.19
2022-08-26T22:23:35.982Z,101054.00
2022-08-26T22:26:03.246Z,101060.16
2022-08-26T22:28:30.168Z,101065.47
2022-08-26T22:30:57.497Z,101069.44
2022-08-26T22:33:25.483Z,101069.56
2022-08-26T22:35:53.085Z,101065.56
2022-08-26T22:38:20.743Z,101056.72
2022-08-26T22:40:50.513Z,101056.19
2022-08-26T22:43:18.327Z,101054.19
2022-08-26T22:45:46.570Z,101040.63
2022-08-26T22:48:15.663Z,101042.13
2022-08-26T22:50:43.462Z,101040.78
2022-08-26T22:53:10.585Z,101048.09
2022-08-26T22:55:37.926Z,101044.75
2022-08-26T22:58:05.595Z,101050.94
2022-08-26T23:00:33.506Z,101051.91
2022-08-26T23:03:01.040Z,101043.75
2022-08-26T23:05:27.967Z,101045.06
2022-08-26T23:07:56.781Z,101046.41
2022-08-26T23:10:24.194Z,101052.38
2022-08-26T23:12:52.958Z,101067.72
2022-08-26T23:15:20.942Z,101065.41
2022-08-26T23:17:48.359Z,101063.97
2022-08-26T23:20:25.885Z,101058.13
2022-08-26T23:22:53.625Z,101061.09
2022-08-26T23:25:20.809Z,101064.22
2022-08-26T23:27:48.269Z,101068.41
2022-08-26T23:30:17.409Z,101052.06
2022-08-26T23:32:44.544Z,101069.47
2022-08-26T23:57:22.270Z,101075.25
2022-08-26T23:59:49.761Z,101079.38
